Time;durP1;ratioP1;P1;durP2;ratioP2;P2;SDS_P1;SDS_P2;PMS_P1;PMS_P2;Temp;Humidity;BMP_temperature;BMP_pressure;BME280_temperature;BME280_humidity;BME280_pressure;Samples;Min_cycle;Max_cycle;Signal;HPM_P1;HPM_P2
2022/04/26 03:37:17;;;;;;;30.70;14.82;;;6.60;99.90;;;;;;5023893;28;20046;-85
2022/04/26 03:39:44;;;;;;;26.15;13.77;;;6.60;99.90;;;;;;5009879;28;20059;-81
2022/04/26 03:42:11;;;;;;;25.05;14.27;;;6.40;99.90;;;;;;4995156;28;20133;-80
2022/04/26 03:44:37;;;;;;;26.92;14.25;;;6.50;99.90;;;;;;5008720;28;20526;-78
2022/04/26 03:47:03;;;;;;;26.33;14.50;;;6.50;99.90;;;;;;4995241;28;20050;-80
2022/04/26 03:49:29;;;;;;;28.23;15.20;;;6.40;99.90;;;;;;5015952;28;20110;-79
2022/04/26 03:51:55;;;;;;;29.83;15.05;;;6.40;99.90;;;;;;4994693;28;20049;-80
2022/04/26 03:54:21;;;;;;;28.27;14.30;;;6.50;99.90;;;;;;5008646;28;20763;-81
2022/04/26 03:56:47;;;;;;;32.28;15.20;;;6.40;99.90;;;;;;5010184;28;20045;-81
2022/04/26 03:59:14;;;;;;;30.73;15.38;;;6.40;99.90;;;;;;5027566;28;20037;-82
2022/04/26 04:01:39;;;;;;;30.35;14.93;;;6.30;99.90;;;;;;4995545;28;20811;-83
2022/04/26 04:04:06;;;;;;;30.38;15.38;;;6.30;99.90;;;;;;5015700;28;20045;-82
2022/04/26 04:06:32;;;;;;;30.70;14.00;;;6.40;99.90;;;;;;5010170;28;20410;-82
2022/04/26 04:08:58;;;;;;;28.65;13.77;;;6.30;99.90;;;;;;5013579;28;20053;-82
2022/04/26 04:11:24;;;;;;;29.52;15.52;;;6.30;99.90;;;;;;4990264;28;20098;-82
2022/04/26 04:13:53;;;;;;;28.08;14.25;;;6.20;99.90;;;;;;5010804;28;20137;-82
2022/04/26 04:16:18;;;;;;;26.45;14.98;;;6.30;99.90;;;;;;5006514;28;20412;-85
2022/04/26 04:21:28;;;;;;;31.08;14.05;;;6.30;99.90;;;;;;5003137;28;20053;-83
2022/04/26 04:23:53;;;;;;;35.60;15.63;;;6.30;99.90;;;;;;4998809;28;20079;-81
2022/04/26 04:26:19;;;;;;;27.75;12.88;;;6.30;99.90;;;;;;5030724;28;20041;-86
2022/04/26 04:28:45;;;;;;;26.05;13.40;;;6.40;99.90;;;;;;4992814;28;20476;-82
2022/04/26 04:31:11;;;;;;;25.27;13.70;;;6.50;99.90;;;;;;4990980;28;20048;-82
2022/04/26 04:33:37;;;;;;;28.58;13.15;;;6.60;99.90;;;;;;4996347;28;20053;-83
2022/04/26 04:36:06;;;;;;;30.60;13.25;;;6.60;99.90;;;;;;5029406;28;20075;-84
2022/04/26 04:38:32;;;;;;;30.92;12.52;;;6.60;99.90;;;;;;4997602;28;20057;-81
2022/04/26 04:40:58;;;;;;;25.63;12.90;;;6.70;99.90;;;;;;5000770;28;20049;-85
2022/04/26 04:43:24;;;;;;;25.48;12.88;;;6.70;99.90;;;;;;5014603;28;20052;-82
2022/04/26 04:45:50;;;;;;;23.48;11.93;;;6.80;99.90;;;;;;5010284;28;20128;-81
2022/04/26 04:48:16;;;;;;;22.90;11.50;;;6.90;99.90;;;;;;5027754;28;20072;-81
2022/04/26 04:50:42;;;;;;;22.17;11.23;;;6.90;99.90;;;;;;4984703;28;20610;-82
2022/04/26 04:53:07;;;;;;;24.27;11.43;;;6.90;99.90;;;;;;5024068;28;20075;-80
2022/04/26 04:55:33;;;;;;;18.88;10.73;;;7.00;99.90;;;;;;4995719;28;20488;-80
2022/04/26 04:57:59;;;;;;;19.08;10.45;;;7.00;99.90;;;;;;5012730;28;20045;-80
2022/04/26 05:00:25;;;;;;;18.40;10.45;;;7.00;99.90;;;;;;5007524;28;20041;-80
2022/04/26 05:02:50;;;;;;;22.40;9.82;;;7.10;99.90;;;;;;5031945;28;20135;-79
2022/04/26 05:05:16;;;;;;;23.30;10.35;;;7.10;99.90;;;;;;5031617;28;20049;-79
2022/04/26 05:07:42;;;;;;;22.75;11.23;;;7.20;99.90;;;;;;5014102;28;20229;-78
2022/04/26 05:10:08;;;;;;;14.23;9.18;;;7.20;99.90;;;;;;5031484;28;20141;-79
2022/04/26 05:12:34;;;;;;;19.85;8.98;;;7.20;99.90;;;;;;5014680;28;20102;-79
2022/04/26 05:15:01;;;;;;;23.50;9.50;;;7.20;99.90;;;;;;5015204;28;20399;-79
2022/04/26 05:17:27;;;;;;;20.58;9.70;;;7.20;99.90;;;;;;5015895;28;20064;-79
2022/04/26 05:19:53;;;;;;;15.80;8.65;;;7.40;99.90;;;;;;5049742;28;20390;-79
2022/04/26 05:22:19;;;;;;;16.83;8.18;;;7.40;99.90;;;;;;5028387;28;20491;-78
2022/04/26 05:24:54;;;;;;;20.38;8.88;;;7.40;99.90;;;;;;5012342;28;20053;-79
2022/04/26 05:27:24;;;;;;;14.70;7.50;;;7.40;99.90;;;;;;5029881;28;20049;-78
2022/04/26 05:29:50;;;;;;;14.93;7.68;;;7.40;99.90;;;;;;5013082;28;20053;-79
2022/04/26 05:32:24;;;;;;;17.75;8.68;;;7.50;99.90;;;;;;4996887;28;20135;-79
2022/04/26 05:34:58;;;;;;;16.98;7.68;;;7.60;99.90;;;;;;5029323;28;20045;-78
2022/04/26 05:37:25;;;;;;;17.92;7.20;;;7.60;99.90;;;;;;5012839;28;20061;-82
2022/04/26 05:39:50;;;;;;;22.48;7.63;;;7.60;99.90;;;;;;5012779;28;20045;-78
2022/04/26 05:42:16;;;;;;;16.85;7.45;;;7.60;99.90;;;;;;5012737;28;20056;-79
2022/04/26 05:44:42;;;;;;;18.98;7.07;;;7.60;99.90;;;;;;5011842;28;20045;-80
2022/04/26 05:47:09;;;;;;;13.65;6.55;;;7.70;99.90;;;;;;5029309;28;20061;-80
2022/04/26 05:49:36;;;;;;;15.35;7.20;;;7.80;99.90;;;;;;4996038;28;20197;-79
2022/04/26 05:52:05;;;;;;;12.13;6.82;;;7.90;99.90;;;;;;5012398;28;20905;-80
2022/04/26 05:54:31;;;;;;;15.50;7.55;;;7.90;99.90;;;;;;5028666;28;20053;-78
2022/04/26 05:56:57;;;;;;;21.63;6.85;;;7.90;99.90;;;;;;4996050;28;20107;-79
2022/04/26 05:59:24;;;;;;;16.80;7.65;;;7.90;99.90;;;;;;5012949;28;20532;-78
2022/04/26 06:01:50;;;;;;;19.35;7.30;;;8.00;99.90;;;;;;5012324;28;20045;-78
2022/04/26 06:04:16;;;;;;;17.15;6.47;;;8.00;99.90;;;;;;5012574;28;20053;-78
2022/04/26 06:06:42;;;;;;;15.73;6.20;;;8.10;99.90;;;;;;5011888;28;20068;-79
2022/04/26 06:09:08;;;;;;;18.58;6.97;;;8.00;99.90;;;;;;5028672;28;20080;-78
2022/04/26 06:11:34;;;;;;;12.20;5.70;;;7.90;99.90;;;;;;5028075;28;20818;-78
2022/04/26 06:14:04;;;;;;;15.18;6.32;;;7.90;99.90;;;;;;4995639;28;20055;-78
2022/04/26 06:16:29;;;;;;;12.93;5.60;;;7.80;99.90;;;;;;5011970;28;20132;-79
2022/04/26 06:18:55;;;;;;;15.00;5.85;;;7.70;99.90;;;;;;5012354;28;20132;-79
2022/04/26 06:21:21;;;;;;;13.77;5.88;;;7.60;99.90;;;;;;4996019;28;20053;-78
2022/04/26 06:23:46;;;;;;;13.45;5.75;;;7.50;99.90;;;;;;4994945;28;20064;-79
2022/04/26 06:26:13;;;;;;;16.75;6.68;;;7.60;99.90;;;;;;5011948;28;20150;-78
2022/04/26 06:28:38;;;;;;;20.33;6.20;;;7.60;99.90;;;;;;5011790;28;20045;-79
2022/04/26 06:31:05;;;;;;;11.95;5.28;;;7.80;99.90;;;;;;5028724;28;20484;-79
2022/04/26 06:33:31;;;;;;;10.90;4.80;;;8.00;99.90;;;;;;5011033;28;20500;-79
2022/04/26 06:35:57;;;;;;;10.63;4.88;;;8.20;99.90;;;;;;5011929;28;20053;-79
2022/04/26 06:38:22;;;;;;;12.25;4.50;;;8.40;99.90;;;;;;4995843;28;20871;-80
2022/04/26 06:40:48;;;;;;;10.57;4.75;;;8.60;99.90;;;;;;5027667;28;20049;-81
2022/04/26 06:43:15;;;;;;;15.60;5.15;;;8.80;99.90;;;;;;4995548;28;20519;-79
2022/04/26 06:45:41;;;;;;;17.25;4.68;;;9.00;99.90;;;;;;5011190;28;20045;-78
2022/04/26 06:48:08;;;;;;;10.63;4.70;;;9.30;99.90;;;;;;5011934;28;20160;-79
2022/04/26 06:50:34;;;;;;;11.48;4.78;;;9.50;99.90;;;;;;5011367;28;20507;-79
2022/04/26 06:52:59;;;;;;;11.35;5.10;;;9.60;99.90;;;;;;5011606;28;20049;-79
2022/04/26 06:55:25;;;;;;;18.40;5.32;;;9.70;99.90;;;;;;4995343;28;20057;-79
2022/04/26 06:57:51;;;;;;;12.43;5.25;;;9.70;99.90;;;;;;5011282;28;20053;-79
2022/04/26 07:00:17;;;;;;;10.43;4.30;;;9.60;99.90;;;;;;5011625;28;20232;-79
2022/04/26 07:02:42;;;;;;;10.93;4.80;;;9.60;99.90;;;;;;5011066;28;20045;-79
2022/04/26 07:05:11;;;;;;;14.98;4.82;;;9.60;99.90;;;;;;4995179;28;20049;-79
2022/04/26 07:07:38;;;;;;;14.60;5.10;;;9.70;99.90;;;;;;5010642;28;20049;-78
2022/04/26 07:10:05;;;;;;;8.18;4.22;;;9.70;99.90;;;;;;4995504;28;20092;-79
2022/04/26 07:12:31;;;;;;;11.18;4.18;;;9.70;99.90;;;;;;5011560;28;20056;-81
2022/04/26 07:14:57;;;;;;;10.98;4.95;;;9.80;99.90;;;;;;5011566;28;20051;-78
2022/04/26 07:17:23;;;;;;;8.63;4.53;;;9.70;99.90;;;;;;5011559;28;20085;-79
2022/04/26 07:19:49;;;;;;;11.48;4.68;;;9.60;99.90;;;;;;5010880;28;20095;-78
2022/04/26 07:22:15;;;;;;;11.50;5.10;;;9.50;99.90;;;;;;4995173;28;20623;-79
2022/04/26 07:24:41;;;;;;;12.23;4.60;;;9.60;99.90;;;;;;5027107;28;20112;-79
2022/04/26 07:27:06;;;;;;;11.60;3.70;;;10.00;99.90;;;;;;5011214;28;20088;-79
2022/04/26 07:29:32;;;;;;;9.15;3.80;;;10.40;99.90;;;;;;5011303;28;20092;-82
2022/04/26 07:31:58;;;;;;;12.45;4.75;;;10.70;99.90;;;;;;5027427;28;20140;-79
2022/04/26 07:34:25;;;;;;;11.00;3.72;;;11.10;99.90;;;;;;5027781;28;20141;-79
2022/04/26 07:36:59;;;;;;;15.32;3.45;;;11.30;99.90;;;;;;4994473;28;20059;-79
2022/04/26 07:39:26;;;;;;;9.63;3.53;;;11.40;99.90;;;;;;5011570;28;20484;-78
2022/04/26 07:41:52;;;;;;;9.52;3.63;;;11.40;99.90;;;;;;5027454;28;20049;-79
2022/04/26 07:44:18;;;;;;;5.85;3.10;;;11.40;99.90;;;;;;5010925;28;20038;-79
2022/04/26 07:46:46;;;;;;;10.82;3.10;;;11.20;99.90;;;;;;5013273;28;20049;-79
2022/04/26 07:49:14;;;;;;;9.15;3.20;;;10.90;99.90;;;;;;5015171;28;20052;-78
2022/04/26 07:51:42;;;;;;;9.52;2.95;;;10.80;99.90;;;;;;5014398;28;20053;-79
2022/04/26 07:54:09;;;;;;;9.95;3.65;;;10.80;99.90;;;;;;4998778;28;20041;-79
2022/04/26 07:56:34;;;;;;;10.05;3.47;;;11.00;99.90;;;;;;5014729;28;20049;-83
2022/04/26 07:59:03;;;;;;;8.05;3.65;;;11.20;99.90;;;;;;5014283;28;20107;-79
2022/04/26 08:01:30;;;;;;;10.85;3.05;;;11.40;99.90;;;;;;5031428;28;20061;-79
2022/04/26 08:03:56;;;;;;;6.72;2.97;;;11.30;99.90;;;;;;5013978;28;20045;-80
2022/04/26 08:06:22;;;;;;;9.15;2.90;;;11.10;99.90;;;;;;4998354;28;20111;-78
2022/04/26 08:08:48;;;;;;;6.10;2.72;;;10.90;99.90;;;;;;4997586;28;20061;-80
2022/04/26 08:11:13;;;;;;;7.05;3.15;;;10.70;99.90;;;;;;5014432;28;20516;-80
2022/04/26 08:13:40;;;;;;;11.35;3.15;;;10.50;99.90;;;;;;5014003;28;20056;-79
2022/04/26 08:16:07;;;;;;;10.35;2.88;;;10.40;99.90;;;;;;5014597;28;20045;-79
2022/04/26 08:18:33;;;;;;;6.43;3.00;;;10.20;99.90;;;;;;5014464;28;20496;-79
2022/04/26 08:20:59;;;;;;;12.45;3.20;;;10.20;99.90;;;;;;5029715;28;20064;-79
2022/04/26 08:23:24;;;;;;;6.40;2.85;;;10.20;99.90;;;;;;4998110;28;20052;-79
2022/04/26 08:28:34;;;;;;;6.70;2.70;;;10.90;99.90;;;;;;5031056;28;20053;-79
2022/04/26 08:31:00;;;;;;;7.97;2.90;;;11.30;99.90;;;;;;5013967;28;20061;-78
2022/04/26 08:33:27;;;;;;;6.72;2.65;;;11.80;99.90;;;;;;4981771;28;20057;-78
2022/04/26 08:35:53;;;;;;;8.05;2.83;;;12.20;99.90;;;;;;4997321;28;20774;-79
2022/04/26 08:38:19;;;;;;;5.20;2.70;;;12.70;99.90;;;;;;5014350;28;20056;-79
2022/04/26 08:40:45;;;;;;;7.40;2.88;;;12.80;99.90;;;;;;5013506;28;20510;-80
2022/04/26 08:43:11;;;;;;;7.38;3.05;;;12.80;99.90;;;;;;5013968;28;20049;-79
2022/04/26 08:45:38;;;;;;;7.07;2.67;;;12.70;99.40;;;;;;4997462;28;20073;-83
2022/04/26 08:51:05;;;;;;;8.03;2.57;;;13.00;99.90;;;;;;5015954;28;20061;-79
2022/04/26 08:53:35;;;;;;;13.63;4.07;;;13.30;98.00;;;;;;4999424;28;20503;-79
2022/04/26 08:56:06;;;;;;;8.32;2.75;;;13.20;91.90;;;;;;5012932;28;20484;-79
2022/04/26 08:58:33;;;;;;;10.13;2.60;;;12.70;91.90;;;;;;5013897;28;20094;-79
2022/04/26 09:01:25;;;;;;;6.15;2.97;;;12.70;95.10;;;;;;5029567;28;20147;-79
2022/04/26 09:04:02;;;;;;;9.20;3.70;;;13.40;93.00;;;;;;5011050;28;20057;-79
2022/04/26 09:06:43;;;;;;;8.52;3.13;;;13.00;94.60;;;;;;5013512;28;20098;-79
2022/04/26 09:09:18;;;;;;;10.60;4.88;;;12.70;94.10;;;;;;5013185;28;20120;-80
2022/04/26 09:11:45;;;;;;;4.47;3.20;;;12.50;93.70;;;;;;5012898;28;20053;-79
2022/04/26 09:14:32;;;;;;;9.00;3.42;;;12.20;97.50;;;;;;5013162;28;20045;-80
2022/04/26 09:17:08;;;;;;;10.32;3.13;;;12.00;95.50;;;;;;5012417;28;20057;-80
2022/04/26 09:19:55;;;;;;;10.10;3.30;;;12.00;97.00;;;;;;5013664;28;20053;-80
2022/04/26 09:22:26;;;;;;;9.15;2.83;;;12.00;96.60;;;;;;5013549;28;20045;-79
2022/04/26 09:24:59;;;;;;;5.75;2.95;;;12.00;96.80;;;;;;5012535;28;20044;-79
2022/04/26 09:27:25;;;;;;;5.07;2.60;;;11.90;95.20;;;;;;5013096;28;20114;-80
2022/04/26 09:29:51;;;;;;;6.28;2.50;;;12.80;95.80;;;;;;4996690;28;20085;-79
2022/04/26 09:32:17;;;;;;;6.65;2.53;;;14.60;91.50;;;;;;5029837;28;20142;-79
2022/04/26 09:34:43;;;;;;;5.43;2.65;;;15.70;80.40;;;;;;5012557;28;20053;-83
2022/04/26 09:37:08;;;;;;;6.53;3.47;;;15.50;72.90;;;;;;5013138;28;20053;-80
2022/04/26 09:39:34;;;;;;;6.93;2.70;;;14.80;70.80;;;;;;5029613;28;20578;-79
2022/04/26 09:42:00;;;;;;;5.47;2.75;;;14.40;75.90;;;;;;4979983;28;20051;-80
2022/04/26 09:44:34;;;;;;;7.25;2.50;;;15.40;74.10;;;;;;4980384;28;20488;-79
2022/04/26 09:47:00;;;;;;;7.40;3.03;;;16.70;65.90;;;;;;5012294;28;20099;-80
2022/04/26 09:49:34;;;;;;;7.38;2.78;;;17.60;63.80;;;;;;5029427;28;20049;-80
2022/04/26 09:51:59;;;;;;;5.68;2.42;;;18.60;61.10;;;;;;5012309;28;20057;-80
2022/04/26 09:54:26;;;;;;;7.10;3.53;;;19.10;56.10;;;;;;5029192;28;20056;-80
2022/04/26 09:56:53;;;;;;;4.97;2.90;;;18.00;56.00;;;;;;5012252;28;20046;-80
2022/04/26 09:59:29;;;;;;;5.57;2.25;;;16.80;58.60;;;;;;4996439;28;20103;-80
2022/04/26 10:01:59;;;;;;;8.88;2.63;;;16.70;61.30;;;;;;4995988;28;20099;-80
2022/04/26 10:04:31;;;;;;;5.63;2.75;;;17.70;61.90;;;;;;5012526;28;20077;-80
2022/04/26 10:07:03;;;;;;;6.10;2.83;;;18.80;55.10;;;;;;5011948;28;20091;-82
2022/04/26 10:09:29;;;;;;;5.60;3.10;;;19.60;53.90;;;;;;5011578;28;20053;-80
2022/04/26 10:12:00;;;;;;;4.70;2.33;;;20.20;51.70;;;;;;5028501;28;20427;-79
2022/04/26 10:14:29;;;;;;;10.20;2.85;;;20.90;49.60;;;;;;4996002;28;20045;-80
2022/04/26 10:16:55;;;;;;;5.43;2.40;;;21.80;48.40;;;;;;4995576;28;20071;-80
2022/04/26 10:19:38;;;;;;;6.38;2.45;;;22.00;45.30;;;;;;5028837;28;20073;-79
2022/04/26 10:22:04;;;;;;;5.13;2.10;;;21.70;42.20;;;;;;5011739;28;20187;-80
2022/04/26 10:24:30;;;;;;;5.82;2.63;;;21.00;43.30;;;;;;5012472;28;20060;-80
2022/04/26 10:27:18;;;;;;;3.13;2.05;;;19.60;44.60;;;;;;5011587;28;20136;-79
2022/04/26 10:29:44;;;;;;;3.53;2.05;;;19.10;42.80;;;;;;5012036;28;20049;-84
2022/04/26 10:32:11;;;;;;;4.25;2.28;;;18.80;46.40;;;;;;5028302;28;20562;-80
2022/04/26 10:34:39;;;;;;;4.75;2.00;;;18.30;47.90;;;;;;5028438;28;20053;-80
2022/04/26 10:37:11;;;;;;;9.25;2.60;;;19.20;48.40;;;;;;5027990;28;20184;-80
2022/04/26 10:39:49;;;;;;;9.23;3.25;;;20.10;45.00;;;;;;5028497;28;20127;-81
2022/04/26 10:42:15;;;;;;;7.32;2.65;;;21.20;42.60;;;;;;5012219;28;20123;-79
2022/04/26 10:44:43;;;;;;;6.93;2.30;;;21.60;42.30;;;;;;5027937;28;20435;-80
2022/04/26 10:47:09;;;;;;;4.68;2.50;;;20.80;41.80;;;;;;5028109;28;20045;-80
2022/04/26 10:49:38;;;;;;;9.10;3.17;;;20.70;42.40;;;;;;5011981;28;20092;-80
2022/04/26 10:52:13;;;;;;;7.28;2.90;;;20.00;43.40;;;;;;5027835;28;20046;-81
2022/04/26 10:54:45;;;;;;;10.60;2.60;;;19.60;45.70;;;;;;5027991;28;20130;-81
2022/04/26 10:57:21;;;;;;;4.40;2.50;;;20.70;43.80;;;;;;5011690;28;20051;-80
2022/04/26 10:59:56;;;;;;;9.82;6.85;;;20.80;39.40;;;;;;5011207;28;20045;-81
2022/04/26 11:02:23;;;;;;;4.83;2.17;;;20.60;42.10;;;;;;5028306;28;20496;-80
2022/04/26 11:05:00;;;;;;;5.15;2.25;;;20.80;41.80;;;;;;4994882;28;20511;-80
2022/04/26 11:07:27;;;;;;;8.32;4.93;;;21.40;38.90;;;;;;5011608;28;20060;-82
2022/04/26 11:09:58;;;;;;;4.10;2.45;;;21.10;40.70;;;;;;5010518;28;20057;-80
2022/04/26 11:12:26;;;;;;;5.10;2.40;;;20.70;38.60;;;;;;5008065;28;20053;-80
2022/04/26 11:14:53;;;;;;;5.68;2.28;;;19.40;41.00;;;;;;5007412;28;20046;-81
2022/04/26 11:17:22;;;;;;;8.93;2.30;;;19.10;44.00;;;;;;4992041;28;20496;-80
2022/04/26 11:19:59;;;;;;;4.60;2.50;;;20.20;43.80;;;;;;5009029;28;20068;-83
2022/04/26 11:22:26;;;;;;;5.50;2.28;;;21.60;40.20;;;;;;5017117;28;20052;-80
2022/04/26 11:28:09;;;;;;;7.95;2.25;;;22.70;36.60;;;;;;5031240;28;20057;-80
2022/04/26 11:30:40;;;;;;;9.82;2.47;;;21.70;36.60;;;;;;5015888;28;20447;-79
2022/04/26 11:33:24;;;;;;;4.20;2.60;;;20.00;39.00;;;;;;5031157;28;20053;-80
2022/04/26 11:36:04;;;;;;;7.20;2.25;;;19.00;41.50;;;;;;5014976;28;20148;-83
2022/04/26 11:38:30;;;;;;;5.60;2.40;;;20.30;41.80;;;;;;5015500;28;20113;-79
2022/04/26 11:41:03;;;;;;;3.70;1.88;;;21.90;39.90;;;;;;5014634;28;20140;-80
2022/04/26 11:43:40;;;;;;;4.78;2.22;;;22.10;37.00;;;;;;4999188;28;20041;-80
2022/04/26 11:46:07;;;;;;;6.53;2.10;;;21.20;37.40;;;;;;4999145;28;20053;-80
2022/04/26 11:48:34;;;;;;;5.30;2.28;;;20.40;38.60;;;;;;5015546;28;20132;-79
2022/04/26 11:51:01;;;;;;;3.75;2.25;;;19.90;40.30;;;;;;4998283;28;20067;-81
2022/04/26 11:53:30;;;;;;;4.78;2.38;;;19.50;41.00;;;;;;5014840;28;20041;-78
2022/04/26 11:56:04;;;;;;;5.13;2.40;;;19.30;41.40;;;;;;5014503;28;20128;-80
2022/04/26 11:58:31;;;;;;;5.53;2.10;;;19.00;42.30;;;;;;5015089;28;20059;-79
2022/04/26 12:01:02;;;;;;;6.72;2.03;;;18.50;43.10;;;;;;5014405;28;20057;-81
2022/04/26 12:03:48;;;;;;;4.65;2.55;;;18.60;42.10;;;;;;4998796;28;20053;-80
2022/04/26 12:06:32;;;;;;;5.53;1.88;;;18.20;41.10;;;;;;5014432;28;20049;-79
2022/04/26 12:09:06;;;;;;;6.88;2.53;;;19.30;40.50;;;;;;5013621;28;20597;-80
2022/04/26 12:11:38;;;;;;;5.43;2.45;;;21.00;39.10;;;;;;5015002;28;20050;-80
2022/04/26 12:14:11;;;;;;;5.57;2.35;;;22.80;37.80;;;;;;5013972;28;20041;-81
2022/04/26 12:16:47;;;;;;;4.35;2.00;;;24.30;34.30;;;;;;5014601;28;20768;-80
2022/04/26 12:19:14;;;;;;;5.95;2.65;;;23.80;32.70;;;;;;5013978;28;20052;-80
2022/04/26 12:21:48;;;;;;;9.35;3.72;;;22.30;34.10;;;;;;5014571;28;20468;-80
2022/04/26 12:24:29;;;;;;;3.70;2.30;;;20.80;35.70;;;;;;5030168;28;20574;-80
2022/04/26 12:27:02;;;;;;;4.97;2.28;;;20.00;40.10;;;;;;5030252;28;20041;-80
2022/04/26 12:29:40;;;;;;;4.15;2.25;;;21.20;38.50;;;;;;5031071;28;20049;-80
2022/04/26 12:32:08;;;;;;;4.68;2.28;;;21.50;37.40;;;;;;4998261;28;20403;-80
2022/04/26 12:34:34;;;;;;;5.38;2.45;;;22.00;36.30;;;;;;5014251;28;20088;-80
2022/04/26 12:37:15;;;;;;;4.80;2.33;;;21.20;36.10;;;;;;5030082;28;20111;-80
2022/04/26 12:39:41;;;;;;;4.47;2.33;;;20.20;36.70;;;;;;5014448;28;20049;-81
2022/04/26 12:42:14;;;;;;;7.22;3.42;;;20.50;38.80;;;;;;5013744;28;20064;-80
2022/04/26 12:44:51;;;;;;;5.07;2.40;;;21.80;37.10;;;;;;5014025;28;20132;-80
2022/04/26 12:50:28;;;;;;;3.50;2.15;;;19.90;36.90;;;;;;5030127;28;20055;-79
2022/04/26 12:53:28;;;;;;;4.13;2.45;;;19.60;39.00;;;;;;5013860;28;20111;-84
2022/04/26 12:56:04;;;;;;;5.53;2.05;;;21.50;37.00;;;;;;5030115;28;20136;-83
2022/04/26 12:58:38;;;;;;;4.13;2.08;;;23.00;35.30;;;;;;5030639;28;20049;-81
2022/04/26 13:01:06;;;;;;;5.25;2.35;;;24.30;32.00;;;;;;5013310;28;20049;-81
2022/04/26 13:03:33;;;;;;;5.47;2.63;;;25.20;30.90;;;;;;5030404;28;20057;-80
2022/04/26 13:06:12;;;;;;;7.88;2.30;;;25.30;29.50;;;;;;4996779;28;20107;-81
2022/04/26 13:08:39;;;;;;;6.68;1.95;;;24.00;30.00;;;;;;5029672;28;20046;-81
2022/04/26 13:11:06;;;;;;;7.07;2.00;;;23.90;31.30;;;;;;5013152;28;20041;-81
2022/04/26 13:13:34;;;;;;;5.45;2.58;;;24.40;30.40;;;;;;5013758;28;20128;-81
2022/04/26 13:16:01;;;;;;;4.03;2.10;;;25.60;30.00;;;;;;5012925;28;20045;-80
2022/04/26 13:18:28;;;;;;;2.80;1.77;;;25.40;28.80;;;;;;4997375;28;20060;-80
2022/04/26 13:20:54;;;;;;;4.32;2.10;;;23.50;30.10;;;;;;4997141;28;20164;-81
2022/04/26 13:23:20;;;;;;;6.00;2.53;;;21.70;32.10;;;;;;5012808;28;20500;-81
2022/04/26 13:25:46;;;;;;;4.15;2.20;;;22.10;33.60;;;;;;5013527;28;20049;-80
2022/04/26 13:28:12;;;;;;;5.22;2.40;;;23.30;31.90;;;;;;4980318;28;20087;-80
2022/04/26 13:30:39;;;;;;;4.22;2.20;;;24.10;30.00;;;;;;5013364;28;20136;-82
2022/04/26 13:33:05;;;;;;;7.10;2.45;;;24.20;29.70;;;;;;5012370;28;20041;-80
2022/04/26 13:35:31;;;;;;;5.40;2.38;;;24.30;30.00;;;;;;5013037;28;20045;-80
2022/04/26 13:38:01;;;;;;;7.60;2.50;;;24.80;29.80;;;;;;5012807;28;20123;-83
2022/04/26 13:40:27;;;;;;;4.30;2.25;;;25.30;29.10;;;;;;5013248;28;20057;-80
2022/04/26 13:42:52;;;;;;;3.70;2.00;;;25.20;28.50;;;;;;5012274;28;20060;-81
2022/04/26 13:45:20;;;;;;;4.07;2.10;;;24.80;28.90;;;;;;5012097;28;20048;-82
2022/04/26 13:47:46;;;;;;;4.10;1.90;;;25.00;29.60;;;;;;5012942;28;20435;-82
2022/04/26 13:50:12;;;;;;;6.10;2.13;;;25.30;28.50;;;;;;4995694;28;20052;-81
2022/04/26 13:52:41;;;;;;;3.75;2.20;;;25.70;28.10;;;;;;4996736;28;20389;-82
2022/04/26 13:55:07;;;;;;;4.80;2.00;;;26.00;27.50;;;;;;5012009;28;20069;-81
2022/04/26 13:57:33;;;;;;;3.88;2.15;;;26.40;27.20;;;;;;4996641;28;20053;-79
2022/04/26 14:00:00;;;;;;;3.92;2.00;;;27.10;26.70;;;;;;5012254;28;20057;-83
2022/04/26 14:02:26;;;;;;;5.57;2.10;;;27.00;26.10;;;;;;5012696;28;20045;-81
2022/04/26 14:04:52;;;;;;;4.20;2.15;;;26.80;26.40;;;;;;4996183;28;20137;-83
2022/04/26 14:07:18;;;;;;;6.82;1.95;;;27.10;26.20;;;;;;4995614;28;20095;-84
2022/04/26 14:09:44;;;;;;;6.28;2.05;;;27.30;25.50;;;;;;5028747;28;20061;-82
2022/04/26 14:12:12;;;;;;;4.25;2.08;;;27.40;25.50;;;;;;4995418;28;20488;-79
2022/04/26 14:22:52;;;;;;;4.90;1.73;;;27.10;25.00;;;;;;5028724;28;20056;-79
2022/04/26 14:25:18;;;;;;;4.20;2.13;;;26.90;24.90;;;;;;4995573;28;20068;-79
2022/04/26 14:27:49;;;;;;;5.20;2.15;;;26.90;24.70;;;;;;5012168;28;20491;-80
2022/04/26 14:30:16;;;;;;;5.85;2.03;;;26.80;24.90;;;;;;4996290;28;20076;-81
2022/04/26 14:32:44;;;;;;;3.67;2.15;;;26.70;24.90;;;;;;5012248;28;20049;-79
2022/04/26 14:35:10;;;;;;;3.88;1.98;;;26.50;25.10;;;;;;5011373;28;20049;-82
2022/04/26 14:37:37;;;;;;;5.03;2.13;;;24.50;26.20;;;;;;5012139;28;20136;-79
2022/04/26 14:40:03;;;;;;;4.97;1.90;;;23.70;27.50;;;;;;5011316;28;20206;-79
2022/04/26 14:42:32;;;;;;;3.33;2.10;;;23.80;27.70;;;;;;5011999;28;20057;-82
2022/04/26 14:44:59;;;;;;;4.38;2.00;;;24.00;27.50;;;;;;4979133;28;20049;-82
2022/04/26 14:47:27;;;;;;;5.45;2.83;;;24.20;27.70;;;;;;5011607;28;20056;-81
2022/04/26 14:49:57;;;;;;;3.55;1.90;;;24.00;27.60;;;;;;4995926;28;20076;-81
2022/04/26 14:52:23;;;;;;;3.20;2.00;;;23.70;27.60;;;;;;5011184;28;20041;-81
2022/04/26 14:54:49;;;;;;;4.20;2.20;;;22.60;28.80;;;;;;4994926;28;20045;-82
2022/04/26 14:57:18;;;;;;;4.10;2.55;;;21.50;30.00;;;;;;5011461;28;20049;-81
2022/04/26 14:59:47;;;;;;;3.75;2.35;;;20.50;32.50;;;;;;5011771;28;20057;-83
2022/04/26 15:02:17;;;;;;;3.08;2.20;;;19.80;34.60;;;;;;4994968;28;20073;-82
2022/04/26 15:04:47;;;;;;;5.55;2.20;;;20.20;34.40;;;;;;5011547;28;20056;-81
2022/04/26 15:07:13;;;;;;;6.85;2.35;;;20.60;33.60;;;;;;4995106;28;20160;-80
2022/04/26 15:09:51;;;;;;;6.07;2.55;;;21.20;32.80;;;;;;5011127;28;20080;-82
2022/04/26 15:17:48;;;;;;;8.90;2.93;;;20.10;33.60;;;;;;4997595;28;20092;-83
2022/04/26 15:20:15;;;;;;;4.53;2.72;;;19.20;35.80;;;;;;4994855;28;20412;-81
2022/04/26 15:22:41;;;;;;;5.15;2.35;;;18.90;36.20;;;;;;5011416;28;20118;-80
2022/04/26 15:25:09;;;;;;;7.80;2.75;;;19.30;35.80;;;;;;4978656;28;20053;-80
2022/04/26 15:27:38;;;;;;;4.93;2.70;;;19.60;36.20;;;;;;5011683;28;20049;-81
2022/04/26 15:30:06;;;;;;;5.47;2.70;;;18.90;36.90;;;;;;5011203;28;20046;-83
2022/04/26 15:32:32;;;;;;;6.57;3.03;;;18.70;37.60;;;;;;4995150;28;20049;-80
2022/04/26 15:34:57;;;;;;;5.07;2.33;;;18.90;37.80;;;;;;4995019;28;20107;-80
2022/04/26 15:37:27;;;;;;;6.47;2.50;;;19.10;37.50;;;;;;5010879;28;20045;-81
2022/04/26 15:39:54;;;;;;;4.03;2.20;;;18.70;38.10;;;;;;4995736;28;20053;-81
2022/04/26 15:42:21;;;;;;;8.45;2.53;;;19.00;37.40;;;;;;5010870;28;20056;-81
2022/04/26 15:44:48;;;;;;;5.53;2.50;;;19.40;36.20;;;;;;5011316;28;20052;-80
2022/04/26 15:47:14;;;;;;;6.18;2.90;;;19.70;35.70;;;;;;4994477;28;20160;-81
2022/04/26 15:49:39;;;;;;;3.53;2.28;;;19.30;36.70;;;;;;4995274;28;20184;-81
2022/04/26 15:52:07;;;;;;;4.10;2.00;;;19.30;36.50;;;;;;5011020;28;20042;-83
2022/04/26 15:54:38;;;;;;;4.25;2.67;;;19.90;35.90;;;;;;4996675;28;20049;-81
2022/04/26 15:57:04;;;;;;;7.47;2.35;;;20.40;34.80;;;;;;5027497;28;20046;-84
2022/04/26 15:59:30;;;;;;;7.60;2.53;;;20.60;34.20;;;;;;4994618;28;20115;-82
2022/04/26 16:01:56;;;;;;;8.63;5.57;;;21.10;33.70;;;;;;4994720;28;20049;-81
2022/04/26 16:04:22;;;;;;;4.18;2.42;;;21.40;32.90;;;;;;5010699;28;20085;-81
2022/04/26 16:06:47;;;;;;;4.10;2.50;;;21.50;32.10;;;;;;5012025;28;20053;-81
2022/04/26 16:20:30;;;;;;;6.88;2.92;;;21.30;33.00;;;;;;4997979;28;20054;-84
2022/04/26 16:23:05;;;;;;;5.57;2.40;;;21.10;33.20;;;;;;5029772;28;20107;-82
2022/04/26 16:25:31;;;;;;;7.30;2.40;;;21.20;33.40;;;;;;5014329;28;20522;-84
2022/04/26 16:28:00;;;;;;;4.80;2.55;;;20.80;34.20;;;;;;4978626;28;20073;-83
2022/04/26 16:30:30;;;;;;;5.68;2.00;;;20.40;34.50;;;;;;4994517;28;20248;-82
2022/04/26 16:33:01;;;;;;;7.18;2.58;;;19.70;35.10;;;;;;4963318;28;20053;-83
2022/04/26 16:35:31;;;;;;;6.20;3.03;;;19.80;36.10;;;;;;4994700;28;20131;-83
2022/04/26 16:37:57;;;;;;;7.78;2.83;;;18.60;37.90;;;;;;4979030;28;20053;-83
2022/04/26 16:40:23;;;;;;;4.05;2.10;;;18.30;39.20;;;;;;5013171;28;20409;-83
2022/04/26 16:42:50;;;;;;;5.10;2.30;;;18.30;39.30;;;;;;5034003;28;20052;-84
2022/04/26 16:45:16;;;;;;;5.85;2.45;;;17.10;41.30;;;;;;4998175;28;20042;-82
2022/04/26 16:47:42;;;;;;;5.07;2.45;;;16.30;43.70;;;;;;5049974;28;20056;-83
2022/04/26 16:50:08;;;;;;;5.18;2.75;;;15.60;45.50;;;;;;5016931;28;20339;-86
2022/04/26 16:52:37;;;;;;;4.22;2.50;;;15.00;47.30;;;;;;5034202;28;20617;-82
2022/04/26 16:55:04;;;;;;;4.15;2.58;;;14.60;48.40;;;;;;5017209;28;20049;-82
2022/04/26 16:57:29;;;;;;;4.88;2.67;;;14.10;49.90;;;;;;5033332;28;20088;-83
2022/04/26 16:59:57;;;;;;;7.57;3.00;;;13.70;50.80;;;;;;5033741;28;20087;-83
2022/04/26 17:02:26;;;;;;;6.82;2.90;;;13.40;51.90;;;;;;5033042;28;20044;-82
2022/04/26 17:04:53;;;;;;;6.07;2.80;;;13.20;53.20;;;;;;5037660;28;20049;-82
2022/04/26 17:07:19;;;;;;;11.95;6.00;;;13.00;54.90;;;;;;5012636;28;20045;-84